Time;durP1;ratioP1;P1;durP2;ratioP2;P2;SDS_P1;SDS_P2;PMS_P1;PMS_P2;Temp;Humidity;BMP_temperature;BMP_pressure;BME280_temperature;BME280_humidity;BME280_pressure;Samples;Min_cycle;Max_cycle;Signal;HPM_P1;HPM_P2
2022/06/29 00:00:31;;;;;;;1.95;0.93;;;;;;;;;;5054525;28;20529;-75
2022/06/29 00:02:57;;;;;;;2.35;0.70;;;;;;;;;;5054473;28;20040;-75
2022/06/29 00:05:24;;;;;;;5.18;1.15;;;;;;;;;;5054550;28;20040;-75
2022/06/29 00:07:51;;;;;;;5.18;1.00;;;;;;;;;;5053081;28;20055;-75
2022/06/29 00:10:18;;;;;;;7.40;1.15;;;;;;;;;;5054268;28;20121;-75
2022/06/29 00:12:45;;;;;;;4.18;0.73;;;;;;;;;;5054456;28;20029;-76
2022/06/29 00:15:11;;;;;;;1.48;0.60;;;;;;;;;;5045961;28;20021;-75
2022/06/29 00:17:37;;;;;;;4.82;0.98;;;;;;;;;;5052816;28;20144;-75
2022/06/29 00:20:05;;;;;;;3.80;0.93;;;;;;;;;;5054129;28;20051;-75
2022/06/29 00:22:31;;;;;;;3.20;0.90;;;;;;;;;;5054098;28;20024;-75
2022/06/29 00:24:58;;;;;;;4.32;0.80;;;;;;;;;;5054037;28;20063;-75
2022/06/29 00:27:24;;;;;;;4.45;0.90;;;;;;;;;;5054107;28;20017;-75
2022/06/29 00:29:50;;;;;;;3.25;0.88;;;;;;;;;;5053996;28;20044;-75
2022/06/29 00:32:16;;;;;;;1.02;0.73;;;;;;;;;;5054028;28;20025;-75
2022/06/29 00:34:42;;;;;;;2.55;0.90;;;;;;;;;;5054075;28;20748;-75
2022/06/29 00:37:09;;;;;;;3.55;0.90;;;;;;;;;;5053748;28;20051;-75
2022/06/29 00:39:35;;;;;;;3.50;0.88;;;;;;;;;;5053976;28;20475;-75
2022/06/29 00:42:01;;;;;;;2.03;0.80;;;;;;;;;;5053983;28;20727;-75
2022/06/29 00:44:27;;;;;;;4.15;0.90;;;;;;;;;;5053419;28;20433;-75
2022/06/29 00:46:55;;;;;;;3.63;0.80;;;;;;;;;;5053876;28;20032;-75
2022/06/29 00:49:22;;;;;;;3.30;0.82;;;;;;;;;;5053525;28;20025;-75
2022/06/29 00:51:49;;;;;;;3.38;0.77;;;;;;;;;;5053838;28;20033;-75
2022/06/29 00:54:19;;;;;;;2.33;0.85;;;;;;;;;;5053676;28;20021;-75
2022/06/29 00:56:45;;;;;;;1.50;0.60;;;;;;;;;;5053328;28;20033;-75
2022/06/29 00:59:13;;;;;;;3.05;0.85;;;;;;;;;;5053230;28;20121;-75
2022/06/29 01:01:41;;;;;;;2.42;0.65;;;;;;;;;;5053309;28;20108;-75
2022/06/29 01:04:07;;;;;;;1.95;0.90;;;;;;;;;;5053431;28;20170;-75
2022/06/29 01:06:33;;;;;;;2.33;0.90;;;;;;;;;;5053550;28;20029;-75
2022/06/29 01:08:59;;;;;;;2.92;0.90;;;;;;;;;;5053356;28;20108;-75
2022/06/29 01:11:25;;;;;;;3.20;0.98;;;;;;;;;;5053355;28;20079;-75
2022/06/29 01:13:52;;;;;;;3.13;1.02;;;;;;;;;;5052954;28;20024;-75
2022/06/29 01:16:18;;;;;;;1.63;1.00;;;;;;;;;;5053068;28;20182;-75
2022/06/29 01:18:44;;;;;;;2.58;0.90;;;;;;;;;;5052988;28;20052;-75
2022/06/29 01:21:13;;;;;;;2.28;0.93;;;;;;;;;;5053022;28;20029;-75
2022/06/29 01:23:39;;;;;;;4.65;1.00;;;;;;;;;;5052976;28;20051;-75
2022/06/29 01:26:11;;;;;;;3.65;0.88;;;;;;;;;;5052944;28;20021;-75
2022/06/29 01:28:37;;;;;;;3.03;0.97;;;;;;;;;;5053061;28;20032;-75
2022/06/29 01:31:03;;;;;;;3.35;1.10;;;;;;;;;;5052750;28;20282;-75
2022/06/29 01:33:29;;;;;;;2.63;1.02;;;;;;;;;;5052716;28;20037;-75
2022/06/29 01:35:55;;;;;;;2.50;0.90;;;;;;;;;;5052715;28;20047;-75
2022/06/29 01:38:21;;;;;;;3.63;0.98;;;;;;;;;;5052589;28;20083;-75
2022/06/29 01:40:47;;;;;;;2.13;1.00;;;;;;;;;;5052653;28;20083;-75
2022/06/29 01:43:13;;;;;;;2.63;1.00;;;;;;;;;;5052653;28;20494;-75
2022/06/29 01:45:39;;;;;;;3.65;1.20;;;;;;;;;;5052460;28;20049;-75
2022/06/29 01:48:05;;;;;;;4.30;1.10;;;;;;;;;;5052638;28;20060;-75
2022/06/29 01:50:31;;;;;;;3.60;1.20;;;;;;;;;;5052399;28;20112;-75
2022/06/29 01:52:57;;;;;;;3.13;1.55;;;;;;;;;;5052566;28;20497;-75
2022/06/29 01:55:23;;;;;;;3.65;0.90;;;;;;;;;;5052372;28;20048;-75
2022/06/29 01:57:49;;;;;;;2.83;1.10;;;;;;;;;;5052195;28;20088;-75
2022/06/29 02:00:16;;;;;;;4.82;1.25;;;;;;;;;;5052532;28;20100;-75
2022/06/29 02:02:42;;;;;;;2.58;1.20;;;;;;;;;;5052273;28;20549;-75
2022/06/29 02:05:08;;;;;;;2.72;0.90;;;;;;;;;;5052110;28;20052;-75
2022/06/29 02:07:34;;;;;;;4.90;1.30;;;;;;;;;;5052417;28;20043;-75
2022/06/29 02:10:00;;;;;;;3.40;1.27;;;;;;;;;;5052076;28;20040;-75
2022/06/29 02:12:26;;;;;;;3.00;1.30;;;;;;;;;;5052134;28;20029;-76
2022/06/29 02:14:52;;;;;;;3.72;1.40;;;;;;;;;;5051356;28;20070;-75
2022/06/29 02:17:19;;;;;;;4.22;1.23;;;;;;;;;;5051778;28;20031;-75
2022/06/29 02:19:45;;;;;;;4.22;1.40;;;;;;;;;;5052118;28;20017;-75
2022/06/29 02:22:11;;;;;;;7.05;1.48;;;;;;;;;;5051980;28;20052;-75
2022/06/29 02:24:37;;;;;;;6.93;1.23;;;;;;;;;;5051981;28;20099;-75
2022/06/29 02:27:04;;;;;;;6.05;1.20;;;;;;;;;;5052189;28;20033;-75
2022/06/29 02:29:30;;;;;;;2.22;0.98;;;;;;;;;;5051882;28;20025;-75
2022/06/29 02:34:43;;;;;;;3.55;1.27;;;;;;;;;;5051850;28;20453;-75
2022/06/29 02:37:10;;;;;;;2.42;1.23;;;;;;;;;;5051800;28;20033;-75
2022/06/29 02:39:36;;;;;;;1.85;1.10;;;;;;;;;;5051926;28;20059;-75
2022/06/29 02:42:02;;;;;;;4.53;1.65;;;;;;;;;;5051824;28;20049;-75
2022/06/29 02:44:28;;;;;;;1.77;1.30;;;;;;;;;;5051391;28;20028;-75
2022/06/29 02:46:54;;;;;;;5.30;1.05;;;;;;;;;;5051703;28;20021;-75
2022/06/29 02:49:20;;;;;;;2.65;1.48;;;;;;;;;;5051636;28;20117;-75
2022/06/29 02:51:46;;;;;;;3.65;1.45;;;;;;;;;;5051853;28;20055;-75
2022/06/29 02:54:12;;;;;;;2.03;1.60;;;;;;;;;;5051932;28;20448;-75
2022/06/29 02:56:38;;;;;;;3.70;1.42;;;;;;;;;;5051637;28;20562;-75
2022/06/29 02:59:06;;;;;;;3.35;1.50;;;;;;;;;;5051403;28;20095;-75
2022/06/29 03:01:32;;;;;;;2.35;1.67;;;;;;;;;;5051452;28;20787;-75
2022/06/29 03:03:58;;;;;;;2.78;1.50;;;;;;;;;;5051226;28;20033;-75
2022/06/29 03:06:24;;;;;;;4.03;1.60;;;;;;;;;;5051583;28;20029;-75
2022/06/29 03:08:50;;;;;;;4.05;1.40;;;;;;;;;;5050012;28;20021;-75
2022/06/29 03:11:16;;;;;;;5.18;1.70;;;;;;;;;;5051464;28;20017;-75
2022/06/29 03:13:42;;;;;;;4.15;1.67;;;;;;;;;;5049275;28;20024;-75
2022/06/29 03:16:08;;;;;;;3.92;1.70;;;;;;;;;;5045379;28;20336;-75
2022/06/29 03:18:34;;;;;;;6.30;1.98;;;;;;;;;;5051350;28;20032;-75
2022/06/29 03:21:00;;;;;;;3.60;1.85;;;;;;;;;;5051330;28;20025;-75
2022/06/29 03:23:26;;;;;;;4.32;1.80;;;;;;;;;;5051317;28;20412;-75
2022/06/29 03:25:52;;;;;;;5.32;1.70;;;;;;;;;;5053063;28;20063;-75
2022/06/29 03:28:18;;;;;;;3.88;1.42;;;;;;;;;;5055200;28;20044;-75
2022/06/29 03:30:44;;;;;;;6.13;1.77;;;;;;;;;;5055000;28;20025;-75
2022/06/29 03:33:10;;;;;;;4.15;1.90;;;;;;;;;;5055099;28;20036;-75
2022/06/29 03:35:36;;;;;;;6.32;2.10;;;;;;;;;;5054951;28;20387;-75
2022/06/29 03:38:02;;;;;;;5.68;1.88;;;;;;;;;;5054768;28;20131;-75
2022/06/29 03:40:28;;;;;;;5.75;2.28;;;;;;;;;;5054833;28;20075;-75
2022/06/29 03:42:55;;;;;;;3.38;1.90;;;;;;;;;;5054842;28;20025;-75
2022/06/29 03:45:22;;;;;;;6.57;1.75;;;;;;;;;;5054602;28;20017;-75
2022/06/29 03:47:48;;;;;;;5.68;1.92;;;;;;;;;;5054745;28;20032;-75
2022/06/29 03:50:14;;;;;;;3.55;2.10;;;;;;;;;;5054589;28;20074;-75
2022/06/29 03:52:40;;;;;;;4.40;1.75;;;;;;;;;;5054685;28;20108;-75
2022/06/29 03:55:07;;;;;;;4.68;1.58;;;;;;;;;;5054643;28;20032;-75
2022/06/29 03:57:33;;;;;;;4.63;1.85;;;;;;;;;;5054308;28;20045;-75
2022/06/29 04:00:00;;;;;;;3.63;1.95;;;;;;;;;;5054584;28;20032;-75
2022/06/29 04:02:26;;;;;;;4.50;1.92;;;;;;;;;;5054506;28;20036;-75
2022/06/29 04:04:53;;;;;;;3.88;1.75;;;;;;;;;;5054760;28;20032;-75
2022/06/29 04:07:19;;;;;;;3.60;1.92;;;;;;;;;;5054391;28;20041;-75
2022/06/29 04:09:45;;;;;;;3.42;1.92;;;;;;;;;;5054206;28;20116;-75
2022/06/29 04:12:11;;;;;;;4.15;1.92;;;;;;;;;;5054397;28;20067;-75
2022/06/29 04:14:37;;;;;;;2.22;1.80;;;;;;;;;;5053959;28;20060;-75
2022/06/29 04:17:03;;;;;;;7.63;2.00;;;;;;;;;;5054239;28;20017;-75
2022/06/29 04:19:29;;;;;;;5.05;2.17;;;;;;;;;;5054340;28;20049;-75
2022/06/29 04:21:55;;;;;;;5.57;3.22;;;;;;;;;;5054391;28;20525;-75
2022/06/29 04:24:22;;;;;;;3.05;2.20;;;;;;;;;;5054181;28;20040;-75
2022/06/29 04:26:48;;;;;;;3.38;1.98;;;;;;;;;;5054218;28;20032;-75
2022/06/29 04:29:14;;;;;;;4.25;2.13;;;;;;;;;;5053982;28;20422;-75
2022/06/29 04:31:40;;;;;;;6.25;2.20;;;;;;;;;;5054159;28;20205;-75
2022/06/29 04:34:07;;;;;;;9.32;2.13;;;;;;;;;;5054002;28;20033;-75
2022/06/29 04:36:33;;;;;;;6.35;2.13;;;;;;;;;;5053595;28;20039;-74
2022/06/29 04:38:59;;;;;;;3.47;2.20;;;;;;;;;;5053457;28;20096;-75
2022/06/29 04:41:25;;;;;;;3.95;2.13;;;;;;;;;;5053908;28;20127;-75
2022/06/29 04:43:51;;;;;;;8.82;2.63;;;;;;;;;;5053630;28;20116;-75
2022/06/29 04:46:21;;;;;;;3.15;1.85;;;;;;;;;;5053845;28;20025;-75
2022/06/29 04:49:01;;;;;;;5.72;2.05;;;;;;;;;;5053763;28;20040;-75
2022/06/29 04:51:28;;;;;;;4.55;2.10;;;;;;;;;;5053812;28;20586;-76
2022/06/29 04:53:56;;;;;;;4.20;2.17;;;;;;;;;;5053714;28;20494;-75
2022/06/29 04:56:26;;;;;;;4.53;2.40;;;;;;;;;;5053737;28;20051;-76
2022/06/29 04:58:53;;;;;;;5.88;2.05;;;;;;;;;;5053526;28;20003;-75
2022/06/29 05:01:20;;;;;;;7.15;2.30;;;;;;;;;;5053689;28;20021;-75
2022/06/29 05:03:46;;;;;;;2.60;1.83;;;;;;;;;;5052307;28;20036;-76
2022/06/29 05:06:13;;;;;;;4.40;2.30;;;;;;;;;;5053559;28;20021;-76
2022/06/29 05:08:39;;;;;;;2.35;1.73;;;;;;;;;;5053541;28;20115;-76
2022/06/29 05:11:05;;;;;;;9.52;2.20;;;;;;;;;;5053629;28;20099;-75
2022/06/29 05:13:31;;;;;;;5.72;2.28;;;;;;;;;;5052660;28;20017;-76
2022/06/29 05:15:57;;;;;;;8.13;2.13;;;;;;;;;;5045769;28;20040;-76
2022/06/29 05:18:24;;;;;;;6.05;2.00;;;;;;;;;;5053198;28;20029;-76
2022/06/29 05:20:50;;;;;;;3.70;2.00;;;;;;;;;;5053365;28;20105;-76
2022/06/29 05:23:16;;;;;;;7.40;1.90;;;;;;;;;;5053187;28;20029;-75
2022/06/29 05:25:43;;;;;;;3.78;1.88;;;;;;;;;;5053229;28;20029;-75
2022/06/29 05:28:11;;;;;;;3.60;1.88;;;;;;;;;;5052985;28;20483;-76
2022/06/29 05:30:37;;;;;;;4.03;1.60;;;;;;;;;;5053110;28;20781;-76
2022/06/29 05:33:03;;;;;;;2.83;1.70;;;;;;;;;;5052900;28;20041;-75
2022/06/29 05:35:33;;;;;;;9.30;1.90;;;;;;;;;;5052375;28;20037;-75
2022/06/29 05:37:59;;;;;;;5.47;1.92;;;;;;;;;;5052386;28;20017;-75
2022/06/29 05:40:25;;;;;;;2.83;1.80;;;;;;;;;;5052599;28;20013;-76
2022/06/29 05:42:52;;;;;;;7.20;1.85;;;;;;;;;;5052464;28;20024;-76
2022/06/29 05:45:18;;;;;;;5.03;2.00;;;;;;;;;;5052008;28;20037;-76
2022/06/29 05:47:44;;;;;;;4.85;1.77;;;;;;;;;;5052240;28;20033;-76
2022/06/29 05:50:10;;;;;;;3.42;1.90;;;;;;;;;;5051152;28;20086;-76
2022/06/29 05:52:37;;;;;;;2.35;1.60;;;;;;;;;;5052148;28;20471;-76
2022/06/29 05:55:03;;;;;;;4.55;1.80;;;;;;;;;;5052204;28;20017;-76
2022/06/29 05:57:29;;;;;;;4.13;1.65;;;;;;;;;;5051976;28;20048;-76
2022/06/29 05:59:56;;;;;;;2.53;1.75;;;;;;;;;;5052006;28;20024;-76
2022/06/29 06:02:22;;;;;;;3.22;1.52;;;;;;;;;;5051881;28;20563;-76
2022/06/29 06:04:48;;;;;;;3.40;1.80;;;;;;;;;;5051662;28;20392;-76
2022/06/29 06:07:14;;;;;;;4.47;1.70;;;;;;;;;;5052016;28;20063;-76
2022/06/29 06:09:40;;;;;;;2.70;1.50;;;;;;;;;;5052009;28;20044;-76
2022/06/29 06:12:06;;;;;;;3.95;1.52;;;;;;;;;;5052270;28;20764;-76
2022/06/29 06:14:32;;;;;;;2.38;1.48;;;;;;;;;;5051176;28;20082;-76
2022/06/29 06:16:58;;;;;;;3.75;1.67;;;;;;;;;;5051788;28;20482;-76
2022/06/29 06:19:24;;;;;;;3.65;1.55;;;;;;;;;;5051703;28;20021;-76
2022/06/29 06:21:50;;;;;;;4.18;1.50;;;;;;;;;;5052018;28;20025;-76
2022/06/29 06:24:16;;;;;;;2.58;1.65;;;;;;;;;;5051772;28;20044;-76
2022/06/29 06:26:42;;;;;;;2.75;1.60;;;;;;;;;;5051845;28;20021;-76
2022/06/29 06:29:08;;;;;;;3.00;1.48;;;;;;;;;;5051623;28;20021;-77
2022/06/29 06:31:34;;;;;;;8.63;2.30;;;;;;;;;;5051751;28;20071;-76
2022/06/29 06:34:01;;;;;;;5.03;1.60;;;;;;;;;;5051682;28;20104;-76
2022/06/29 06:36:27;;;;;;;5.18;2.00;;;;;;;;;;5050332;28;20129;-76
2022/06/29 06:38:53;;;;;;;3.85;1.70;;;;;;;;;;5051535;28;20105;-76
2022/06/29 06:41:22;;;;;;;3.30;1.70;;;;;;;;;;5051557;28;20528;-76
2022/06/29 06:43:51;;;;;;;6.40;1.40;;;;;;;;;;5051733;28;20029;-77
2022/06/29 06:46:18;;;;;;;5.28;1.95;;;;;;;;;;5051656;28;20483;-77
2022/06/29 06:48:44;;;;;;;5.47;1.80;;;;;;;;;;5049764;28;20383;-77
2022/06/29 06:51:11;;;;;;;8.45;1.85;;;;;;;;;;5051350;28;20037;-76
2022/06/29 06:53:37;;;;;;;5.05;1.70;;;;;;;;;;5051636;28;20024;-76
2022/06/29 06:56:04;;;;;;;7.60;1.45;;;;;;;;;;5051603;28;20021;-76
2022/06/29 06:58:30;;;;;;;6.57;1.90;;;;;;;;;;5051529;28;20077;-76
2022/06/29 07:00:56;;;;;;;3.85;1.50;;;;;;;;;;5053514;28;20025;-76
2022/06/29 07:03:22;;;;;;;4.97;1.70;;;;;;;;;;5055909;28;20025;-77
2022/06/29 07:05:48;;;;;;;3.47;1.58;;;;;;;;;;5055692;28;20115;-76
2022/06/29 07:08:14;;;;;;;4.85;1.70;;;;;;;;;;5055628;28;20035;-76
2022/06/29 07:10:40;;;;;;;5.80;1.45;;;;;;;;;;5055726;28;20033;-76
2022/06/29 07:13:06;;;;;;;3.63;1.35;;;;;;;;;;5055655;28;20031;-77
2022/06/29 07:15:32;;;;;;;4.32;1.60;;;;;;;;;;5055319;28;20033;-77
2022/06/29 07:17:58;;;;;;;4.38;1.55;;;;;;;;;;5055434;28;20025;-76
2022/06/29 07:20:28;;;;;;;5.25;1.23;;;;;;;;;;5054799;28;20029;-76
2022/06/29 07:22:54;;;;;;;5.35;1.55;;;;;;;;;;5055012;28;20016;-77
2022/06/29 07:25:20;;;;;;;7.30;1.30;;;;;;;;;;5055201;28;20078;-77
2022/06/29 07:27:46;;;;;;;4.38;1.48;;;;;;;;;;5054962;28;20324;-77
2022/06/29 07:30:12;;;;;;;7.38;1.55;;;;;;;;;;5055051;28;20017;-77
2022/06/29 07:32:38;;;;;;;6.20;1.90;;;;;;;;;;5054669;28;20086;-77
2022/06/29 07:35:05;;;;;;;3.30;1.27;;;;;;;;;;5054573;28;20025;-77
2022/06/29 07:37:31;;;;;;;3.58;1.20;;;;;;;;;;5054496;28;20025;-76
2022/06/29 07:39:57;;;;;;;3.88;1.20;;;;;;;;;;5052981;28;20114;-77
2022/06/29 07:42:23;;;;;;;5.55;1.23;;;;;;;;;;5054685;28;20475;-77
2022/06/29 07:44:49;;;;;;;11.25;1.60;;;;;;;;;;5051744;28;20109;-78
2022/06/29 07:47:15;;;;;;;6.72;2.00;;;;;;;;;;5054558;28;20021;-78
2022/06/29 07:49:41;;;;;;;2.15;1.10;;;;;;;;;;5054606;28;20175;-76
2022/06/29 07:52:07;;;;;;;7.28;1.90;;;;;;;;;;5054555;28;20052;-77
2022/06/29 07:54:33;;;;;;;6.10;1.60;;;;;;;;;;5054339;28;20029;-76
2022/06/29 07:56:59;;;;;;;2.88;1.10;;;;;;;;;;5052686;28;20090;-76
2022/06/29 07:59:25;;;;;;;3.22;1.27;;;;;;;;;;5051715;28;20541;-77
2022/06/29 08:01:51;;;;;;;2.30;1.20;;;;;;;;;;5053061;28;20150;-77
2022/06/29 08:04:17;;;;;;;3.13;1.25;;;;;;;;;;5050938;28;20113;-75
2022/06/29 08:06:43;;;;;;;4.30;1.40;;;;;;;;;;5053353;28;20029;-76
2022/06/29 08:09:10;;;;;;;4.63;1.50;;;;;;;;;;5051695;28;20372;-77
2022/06/29 08:11:36;;;;;;;4.85;1.65;;;;;;;;;;5052291;28;20045;-77
2022/06/29 08:14:02;;;;;;;2.65;1.38;;;;;;;;;;5052843;28;20013;-77
2022/06/29 08:16:28;;;;;;;4.78;1.52;;;;;;;;;;5053319;28;20025;-77
2022/06/29 08:18:54;;;;;;;3.08;1.42;;;;;;;;;;5053725;28;20021;-78
2022/06/29 08:21:20;;;;;;;4.60;1.40;;;;;;;;;;5054452;28;20036;-77
2022/06/29 08:23:47;;;;;;;4.53;1.48;;;;;;;;;;5054360;28;20029;-77
2022/06/29 08:26:13;;;;;;;4.28;1.60;;;;;;;;;;5054178;28;20055;-78
2022/06/29 08:28:39;;;;;;;6.03;1.67;;;;;;;;;;5054182;28;20028;-78
2022/06/29 08:31:06;;;;;;;3.70;1.73;;;;;;;;;;5054045;28;20122;-78
2022/06/29 08:33:32;;;;;;;3.40;1.50;;;;;;;;;;5054184;28;20048;-78
2022/06/29 08:35:58;;;;;;;4.00;1.65;;;;;;;;;;5054218;28;20032;-78
2022/06/29 08:38:24;;;;;;;8.30;1.83;;;;;;;;;;5053942;28;20112;-77
2022/06/29 08:40:50;;;;;;;4.57;1.60;;;;;;;;;;5053900;28;20028;-78
2022/06/29 08:43:17;;;;;;;5.35;1.50;;;;;;;;;;5054007;28;20025;-76
2022/06/29 08:45:44;;;;;;;5.75;1.30;;;;;;;;;;5053691;28;20017;-77
2022/06/29 08:48:11;;;;;;;6.80;1.50;;;;;;;;;;5053902;28;20053;-76
2022/06/29 08:50:44;;;;;;;7.90;1.70;;;;;;;;;;5054078;28;20460;-77
2022/06/29 08:53:13;;;;;;;2.67;1.13;;;;;;;;;;5053689;28;20469;-75
2022/06/29 08:55:42;;;;;;;4.03;1.60;;;;;;;;;;5053563;28;20021;-75
2022/06/29 08:58:10;;;;;;;7.88;1.70;;;;;;;;;;5052856;28;20039;-74
2022/06/29 09:00:36;;;;;;;7.30;1.40;;;;;;;;;;5052507;28;20387;-77
2022/06/29 09:03:04;;;;;;;4.57;1.42;;;;;;;;;;5052324;28;20024;-77
2022/06/29 09:05:30;;;;;;;4.32;1.27;;;;;;;;;;5052328;28;20104;-78
2022/06/29 09:07:56;;;;;;;2.90;1.40;;;;;;;;;;5052501;28;20048;-78
2022/06/29 09:10:24;;;;;;;6.90;1.92;;;;;;;;;;5052962;28;20037;-78
2022/06/29 09:12:52;;;;;;;3.78;1.20;;;;;;;;;;5053177;28;20056;-75
2022/06/29 09:15:29;;;;;;;2.28;1.10;;;;;;;;;;5053418;28;20409;-76
2022/06/29 09:17:55;;;;;;;6.15;1.30;;;;;;;;;;5053173;28;20040;-78
2022/06/29 09:20:21;;;;;;;4.30;1.10;;;;;;;;;;5052896;28;20021;-77
2022/06/29 09:22:54;;;;;;;5.05;1.00;;;;;;;;;;5052856;28;20021;-78
2022/06/29 09:25:27;;;;;;;3.85;1.25;;;;;;;;;;5053022;28;20021;-78
2022/06/29 09:27:56;;;;;;;3.42;1.00;;;;;;;;;;5052966;28;20090;-78
2022/06/29 09:30:26;;;;;;;3.50;0.85;;;;;;;;;;5051362;28;20151;-78
2022/06/29 09:33:06;;;;;;;4.68;0.90;;;;;;;;;;5052648;28;20033;-78
2022/06/29 09:35:37;;;;;;;1.13;0.80;;;;;;;;;;5052284;28;20340;-78
2022/06/29 09:38:22;;;;;;;2.50;0.80;;;;;;;;;;5051331;28;20037;-78
2022/06/29 09:40:58;;;;;;;3.10;1.30;;;;;;;;;;5052782;28;20032;-78
2022/06/29 09:43:24;;;;;;;4.40;0.90;;;;;;;;;;5052842;28;20033;-78
2022/06/29 09:45:52;;;;;;;2.83;1.00;;;;;;;;;;5052614;28;20028;-78
2022/06/29 09:48:21;;;;;;;1.67;1.00;;;;;;;;;;5052710;28;20028;-78
2022/06/29 09:50:48;;;;;;;4.40;0.93;;;;;;;;;;5052524;28;20108;-78
2022/06/29 09:53:16;;;;;;;2.35;0.93;;;;;;;;;;5051221;28;20040;-78
2022/06/29 09:55:42;;;;;;;4.97;1.08;;;;;;;;;;5052541;28;20382;-78
2022/06/29 09:58:09;;;;;;;4.20;1.02;;;;;;;;;;5052306;28;20049;-78
2022/06/29 10:03:20;;;;;;;3.83;0.98;;;;;;;;;;5052677;28;20035;-78
2022/06/29 10:05:58;;;;;;;2.67;0.93;;;;;;;;;;5052190;28;20025;-78
2022/06/29 10:08:26;;;;;;;1.73;0.82;;;;;;;;;;5052623;28;20025;-78
2022/06/29 10:10:57;;;;;;;3.08;0.93;;;;;;;;;;5052770;28;20066;-78
2022/06/29 10:13:40;;;;;;;4.07;1.33;;;;;;;;;;5052556;28;20021;-78
2022/06/29 10:16:15;;;;;;;1.77;0.90;;;;;;;;;;5032605;28;20021;-78
2022/06/29 10:18:47;;;;;;;5.57;1.10;;;;;;;;;;5032658;28;20171;-78
2022/06/29 10:21:24;;;;;;;2.78;0.98;;;;;;;;;;5032821;28;20053;-78
2022/06/29 10:23:53;;;;;;;3.35;1.10;;;;;;;;;;5032615;28;20026;-78
2022/06/29 10:26:35;;;;;;;2.00;1.00;;;;;;;;;;5032293;28;20075;-78
2022/06/29 10:29:07;;;;;;;4.85;1.08;;;;;;;;;;5031998;28;20030;-78
2022/06/29 10:31:51;;;;;;;3.95;0.90;;;;;;;;;;5032045;28;20495;-78
2022/06/29 10:34:30;;;;;;;2.28;1.02;;;;;;;;;;5031981;28;20033;-78
2022/06/29 10:36:59;;;;;;;1.98;0.93;;;;;;;;;;5031725;28;20452;-78
2022/06/29 10:39:25;;;;;;;3.17;1.02;;;;;;;;;;5031801;28;20075;-78
2022/06/29 10:44:58;;;;;;;4.47;0.90;;;;;;;;;;5035291;28;20095;-78
2022/06/29 10:47:24;;;;;;;2.58;0.98;;;;;;;;;;5051659;28;20157;-78
2022/06/29 10:50:10;;;;;;;3.70;0.90;;;;;;;;;;5051622;28;20036;-78
2022/06/29 10:52:37;;;;;;;1.83;1.00;;;;;;;;;;5051468;28;20091;-78
2022/06/29 10:55:03;;;;;;;3.67;1.00;;;;;;;;;;5051468;28;20059;-78
2022/06/29 10:57:33;;;;;;;4.30;1.02;;;;;;;;;;5050163;28;20399;-78
2022/06/29 10:59:59;;;;;;;3.63;0.93;;;;;;;;;;5051141;28;20614;-76
2022/06/29 11:02:25;;;;;;;2.90;0.98;;;;;;;;;;5052051;28;20068;-80
2022/06/29 11:04:51;;;;;;;6.13;1.67;;;;;;;;;;5052576;28;20107;-79
2022/06/29 11:12:50;;;;;;;3.88;1.00;;;;;;;;;;5053585;28;20095;-78
2022/06/29 11:15:41;;;;;;;1.70;0.88;;;;;;;;;;5053024;28;20033;-80
2022/06/29 11:18:12;;;;;;;2.20;0.88;;;;;;;;;;5053439;28;20036;-79
2022/06/29 11:20:41;;;;;;;3.15;1.00;;;;;;;;;;5051797;28;20059;-80
2022/06/29 11:23:10;;;;;;;1.50;0.82;;;;;;;;;;5053025;28;20631;-78
2022/06/29 11:25:41;;;;;;;0.73;0.70;;;;;;;;;;5052744;28;20017;-78
2022/06/29 11:28:07;;;;;;;6.38;0.98;;;;;;;;;;5049197;28;20025;-78
2022/06/29 11:30:33;;;;;;;7.50;1.25;;;;;;;;;;5053638;28;20106;-79
2022/06/29 11:32:59;;;;;;;8.55;1.30;;;;;;;;;;5054101;28;20017;-78
2022/06/29 11:35:26;;;;;;;2.60;1.30;;;;;;;;;;5053455;28;20025;-79
2022/06/29 11:38:05;;;;;;;3.20;1.00;;;;;;;;;;5052359;28;20047;-79
2022/06/29 11:40:35;;;;;;;2.47;1.08;;;;;;;;;;5051746;28;20022;-79
2022/06/29 11:43:09;;;;;;;4.93;1.02;;;;;;;;;;5051029;28;20017;-79
2022/06/29 11:45:57;;;;;;;2.47;0.90;;;;;;;;;;5050130;28;20094;-80
2022/06/29 11:48:24;;;;;;;4.20;1.15;;;;;;;;;;5056842;28;20025;-80
2022/06/29 11:50:57;;;;;;;2.92;1.02;;;;;;;;;;5055879;28;20375;-80
2022/06/29 11:53:56;;;;;;;3.50;1.00;;;;;;;;;;5042719;28;20029;-79
2022/06/29 11:56:23;;;;;;;5.35;1.20;;;;;;;;;;5008360;28;20117;-80
2022/06/29 11:58:55;;;;;;;3.03;1.10;;;;;;;;;;5015048;28;20045;-80
2022/06/29 12:01:26;;;;;;;1.33;1.00;;;;;;;;;;5015038;28;20413;-80
2022/06/29 12:03:54;;;;;;;2.80;1.10;;;;;;;;;;4997988;28;20029;-76
2022/06/29 12:06:21;;;;;;;2.30;1.10;;;;;;;;;;5012288;28;20069;-77
2022/06/29 12:08:48;;;;;;;2.20;1.10;;;;;;;;;;5012017;28;20029;-76
2022/06/29 12:11:14;;;;;;;2.95;1.00;;;;;;;;;;5012164;28;20045;-76
2022/06/29 12:13:40;;;;;;;7.22;1.95;;;;;;;;;;5012221;28;20422;-79
2022/06/29 12:16:06;;;;;;;8.10;1.55;;;;;;;;;;5012424;28;20030;-76
2022/06/29 12:18:32;;;;;;;5.95;1.10;;;;;;;;;;5012063;28;20046;-77
2022/06/29 12:20:58;;;;;;;2.83;1.02;;;;;;;;;;5011806;28;20547;-77
2022/06/29 12:23:24;;;;;;;9.00;1.15;;;;;;;;;;5012107;28;20075;-77
2022/06/29 12:25:50;;;;;;;2.50;0.93;;;;;;;;;;5011815;28;20567;-77
2022/06/29 12:28:16;;;;;;;3.20;0.90;;;;;;;;;;5000141;28;20029;-77
2022/06/29 12:30:42;;;;;;;2.72;1.02;;;;;;;;;;5011272;28;20029;-77
2022/06/29 12:33:09;;;;;;;2.50;0.80;;;;;;;;;;5053093;28;20043;-76
2022/06/29 12:35:36;;;;;;;1.15;0.80;;;;;;;;;;5053763;28;20480;-77
2022/06/29 12:38:02;;;;;;;2.28;0.90;;;;;;;;;;5053140;28;20029;-76
2022/06/29 12:40:30;;;;;;;2.25;0.88;;;;;;;;;;5053585;28;20036;-77
2022/06/29 12:42:56;;;;;;;2.78;1.05;;;;;;;;;;5053835;28;20114;-76
2022/06/29 12:45:24;;;;;;;1.42;1.00;;;;;;;;;;5044141;28;20030;-76
2022/06/29 12:47:50;;;;;;;7.55;1.38;;;;;;;;;;5033892;28;20032;-76
2022/06/29 12:50:16;;;;;;;2.90;1.15;;;;;;;;;;5033615;28;20227;-76
2022/06/29 12:52:46;;;;;;;3.85;0.90;;;;;;;;;;5033295;28;20082;-75
2022/06/29 12:55:15;;;;;;;2.20;1.10;;;;;;;;;;5067148;28;20026;-76
2022/06/29 12:57:42;;;;;;;7.03;1.23;;;;;;;;;;5052969;28;20045;-76
2022/06/29 13:00:09;;;;;;;3.13;1.15;;;;;;;;;;5053133;28;20028;-76
2022/06/29 13:02:35;;;;;;;1.75;0.80;;;;;;;;;;5053422;28;20448;-76
2022/06/29 13:05:01;;;;;;;1.85;1.20;;;;;;;;;;5053680;28;20036;-76
2022/06/29 13:07:27;;;;;;;1.88;0.85;;;;;;;;;;5053403;28;20071;-75
2022/06/29 13:09:54;;;;;;;3.63;0.95;;;;;;;;;;5052794;28;20056;-76
2022/06/29 13:12:21;;;;;;;1.63;0.90;;;;;;;;;;5052500;28;20108;-75
2022/06/29 13:14:47;;;;;;;1.80;0.90;;;;;;;;;;5051404;28;20477;-75
2022/06/29 13:17:14;;;;;;;2.42;1.10;;;;;;;;;;5052683;28;20068;-76
2022/06/29 13:19:41;;;;;;;1.83;1.05;;;;;;;;;;5047580;28;20029;-76
2022/06/29 13:22:07;;;;;;;2.22;0.93;;;;;;;;;;5048825;28;20018;-76
2022/06/29 13:24:33;;;;;;;2.33;0.98;;;;;;;;;;5059204;28;20103;-78
2022/06/29 13:27:00;;;;;;;1.15;0.90;;;;;;;;;;5057300;28;20029;-77
2022/06/29 13:29:26;;;;;;;3.33;1.30;;;;;;;;;;5059682;28;20029;-79
2022/06/29 13:31:53;;;;;;;3.65;0.93;;;;;;;;;;5058467;28;20028;-78
2022/06/29 13:34:19;;;;;;;2.80;1.20;;;;;;;;;;5067779;28;20023;-78
2022/06/29 13:36:45;;;;;;;4.57;1.25;;;;;;;;;;5060484;28;20086;-78
2022/06/29 13:39:11;;;;;;;2.08;0.90;;;;;;;;;;5063233;28;20036;-78
2022/06/29 13:41:37;;;;;;;2.72;1.00;;;;;;;;;;5061621;28;20037;-80
2022/06/29 13:44:03;;;;;;;3.15;1.00;;;;;;;;;;5055931;28;20082;-81
2022/06/29 13:46:29;;;;;;;1.58;1.05;;;;;;;;;;5053750;28;20025;-81
2022/06/29 13:48:56;;;;;;;4.55;1.17;;;;;;;;;;5052597;28;20147;-80
2022/06/29 13:51:22;;;;;;;4.80;1.27;;;;;;;;;;5052923;28;20025;-81
2022/06/29 13:53:48;;;;;;;3.95;1.20;;;;;;;;;;5054022;28;20029;-79
2022/06/29 13:56:14;;;;;;;5.10;1.20;;;;;;;;;;5051979;28;20044;-79
2022/06/29 13:58:40;;;;;;;1.25;0.80;;;;;;;;;;5061446;28;20098;-80
2022/06/29 14:01:06;;;;;;;2.42;0.90;;;;;;;;;;5058529;28;20025;-79
2022/06/29 14:03:32;;;;;;;3.08;0.90;;;;;;;;;;5058528;28;20410;-78
2022/06/29 14:05:58;;;;;;;4.65;1.00;;;;;;;;;;5052718;28;20121;-80
2022/06/29 14:08:24;;;;;;;5.53;1.20;;;;;;;;;;5060917;28;20105;-78
2022/06/29 14:10:50;;;;;;;1.90;1.00;;;;;;;;;;5051940;28;20033;-79
2022/06/29 14:13:17;;;;;;;7.10;1.30;;;;;;;;;;5042266;28;20021;-79
2022/06/29 14:15:43;;;;;;;3.85;1.17;;;;;;;;;;5064425;28;20103;-78
2022/06/29 14:18:10;;;;;;;1.35;0.88;;;;;;;;;;5063059;28;20122;-79
2022/06/29 14:20:37;;;;;;;3.42;1.13;;;;;;;;;;5061322;28;20028;-78
2022/06/29 14:23:03;;;;;;;1.65;1.10;;;;;;;;;;5055848;28;20348;-78
2022/06/29 14:25:32;;;;;;;2.08;0.90;;;;;;;;;;5065465;28;20031;-78
2022/06/29 14:27:58;;;;;;;1.23;0.80;;;;;;;;;;5056891;28;20044;-79
2022/06/29 14:30:25;;;;;;;1.73;1.08;;;;;;;;;;5057269;28;20065;-79
2022/06/29 14:32:51;;;;;;;9.90;1.35;;;;;;;;;;5050053;28;20031;-78
2022/06/29 14:35:18;;;;;;;2.10;0.85;;;;;;;;;;5060035;28;20122;-78
2022/06/29 14:37:44;;;;;;;5.72;1.10;;;;;;;;;;5050222;28;20118;-77
2022/06/29 14:40:10;;;;;;;3.00;1.10;;;;;;;;;;5047142;28;20040;-78
2022/06/29 14:42:36;;;;;;;5.00;1.20;;;;;;;;;;5051536;28;20075;-78
2022/06/29 14:45:05;;;;;;;2.58;0.93;;;;;;;;;;5051265;28;20104;-78
2022/06/29 14:47:31;;;;;;;3.55;0.90;;;;;;;;;;5051000;28;20036;-76
2022/06/29 14:49:57;;;;;;;2.22;1.00;;;;;;;;;;5050763;28;20036;-78
2022/06/29 14:52:23;;;;;;;1.88;0.85;;;;;;;;;;5052816;28;20067;-79
2022/06/29 14:54:49;;;;;;;5.57;1.13;;;;;;;;;;5049611;28;20021;-76
2022/06/29 14:57:16;;;;;;;2.38;1.10;;;;;;;;;;5051757;28;20032;-77